Bartley, Indiana
Current Conditions -  °F | °C
As of 6:53 AM on Saturday 25 Oct 2014 (Local Time) from KHUF Reporting Station
Clear Clear  
Wind Chill: 55°   Ceiling: Unl
Heat Index: 55°   Visibility: 10mi
Dew Point: 51°   Wind: 5mph
Humidity: 86%   Direction: 220°SW
Pressure: 29.97"   Gusts: NA
Location:  39.543°N, 87.3153°W
Report Text: KHUF 251053Z 22004KT 10SM CLR 13/11 A2997 RMK AO2 SLP149 T01280106
Loading
Personal Weather Stations






























Interactive Weather Map
Tropical Storm Tracking
New forecast layout! Learn more

10-Day Weather Forecast

Advertisements
Track Severe Weather on mobile